createdAt,value
2023-03-10T00:01:34.995Z,95.94
2023-03-10T00:04:04.553Z,95.61
2023-03-10T00:06:37.554Z,95.60
2023-03-10T00:09:06.292Z,95.32
2023-03-10T00:11:36.520Z,95.77
2023-03-10T00:14:05.276Z,96.05
2023-03-10T00:16:33.972Z,95.81
2023-03-10T00:19:02.623Z,95.36
2023-03-10T00:21:33.818Z,95.07
2023-03-10T00:24:02.692Z,94.75
2023-03-10T00:26:31.873Z,94.92
2023-03-10T00:29:02.006Z,95.00
2023-03-10T00:31:32.637Z,95.05
2023-03-10T00:34:02.356Z,94.69
2023-03-10T00:36:33.772Z,94.53
2023-03-10T00:39:05.025Z,94.54
2023-03-10T00:41:36.588Z,94.92
2023-03-10T00:44:09.653Z,95.33
2023-03-10T00:46:39.812Z,95.30
2023-03-10T00:49:10.179Z,95.37
2023-03-10T00:51:39.034Z,95.46
2023-03-10T00:54:07.717Z,95.78
2023-03-10T00:56:36.470Z,95.42
2023-03-10T00:59:07.744Z,95.87
2023-03-10T01:01:40.741Z,96.28
2023-03-10T01:04:14.144Z,96.05
2023-03-10T01:06:47.561Z,95.88
2023-03-10T01:09:17.998Z,95.85
2023-03-10T01:11:47.332Z,95.91
2023-03-10T01:14:19.545Z,95.67
2023-03-10T01:16:48.244Z,95.50
2023-03-10T01:19:18.515Z,95.60
2023-03-10T01:21:47.250Z,95.66
2023-03-10T01:24:17.391Z,95.67
2023-03-10T01:26:46.265Z,95.75
2023-03-10T01:29:16.398Z,96.11
2023-03-10T01:31:45.161Z,95.85
2023-03-10T01:34:13.923Z,95.85
2023-03-10T01:36:43.693Z,95.92
2023-03-10T01:39:12.394Z,95.90
2023-03-10T01:41:43.330Z,95.91
2023-03-10T01:44:20.133Z,95.94
2023-03-10T01:46:52.165Z,95.79
2023-03-10T01:49:41.419Z,95.63
2023-03-10T01:52:17.698Z,95.61
2023-03-10T01:54:51.575Z,95.37
2023-03-10T01:57:26.515Z,95.56
2023-03-10T01:59:59.909Z,95.17
2023-03-10T02:02:36.812Z,95.58
2023-03-10T02:05:06.201Z,95.41
2023-03-10T02:07:37.873Z,96.39
2023-03-10T02:10:09.940Z,96.61
2023-03-10T02:12:38.652Z,96.46
2023-03-10T02:15:11.214Z,96.56
2023-03-10T02:17:41.665Z,96.88
2023-03-10T02:20:30.828Z,96.65
2023-03-10T02:23:00.394Z,96.93
2023-03-10T02:25:40.284Z,97.68
2023-03-10T02:28:10.924Z,98.17
2023-03-10T02:30:42.574Z,97.90
2023-03-10T02:33:17.745Z,98.42
2023-03-10T02:35:47.281Z,98.29
2023-03-10T02:38:22.161Z,99.02
2023-03-10T02:40:54.810Z,98.86
2023-03-10T02:43:33.051Z,100.00
2023-03-10T02:46:25.750Z,99.70
2023-03-10T02:48:54.480Z,99.48
2023-03-10T02:51:33.101Z,99.30
2023-03-10T02:54:05.450Z,99.83
2023-03-10T02:56:34.429Z,99.64
2023-03-10T02:59:05.985Z,99.50
2023-03-10T03:01:36.277Z,99.74
2023-03-10T03:04:05.797Z,99.83
2023-03-10T03:06:35.216Z,99.61
2023-03-10T03:09:05.307Z,99.91
2023-03-10T03:11:34.552Z,100.00
2023-03-10T03:14:04.957Z,100.00
2023-03-10T03:16:34.324Z,100.00
2023-03-10T03:19:06.778Z,100.00
2023-03-10T03:21:35.676Z,100.00
2023-03-10T03:24:05.191Z,100.00
2023-03-10T03:26:33.981Z,100.00
2023-03-10T03:29:15.783Z,100.00
2023-03-10T03:31:44.778Z,100.00
2023-03-10T03:34:21.139Z,100.00
2023-03-10T03:36:53.740Z,100.00
2023-03-10T03:39:32.189Z,100.00
2023-03-10T03:42:04.611Z,100.00
2023-03-10T03:44:44.263Z,100.00
2023-03-10T03:47:13.656Z,100.00
2023-03-10T03:49:42.898Z,100.00
2023-03-10T03:52:13.183Z,100.00
2023-03-10T03:54:42.029Z,100.00
2023-03-10T03:57:11.940Z,100.00
2023-03-10T03:59:40.991Z,100.00
2023-03-10T04:02:11.558Z,100.00
2023-03-10T04:04:40.807Z,100.00
2023-03-10T04:07:10.240Z,100.00
2023-03-10T04:09:41.270Z,100.00
2023-03-10T04:12:11.892Z,100.00
2023-03-10T04:14:43.624Z,100.00
2023-03-10T04:17:13.749Z,100.00
2023-03-10T04:19:42.783Z,100.00
2023-03-10T04:22:14.685Z,100.00
2023-03-10T04:24:44.132Z,100.00
2023-03-10T04:27:13.179Z,100.00
2023-03-10T04:29:42.478Z,100.00
2023-03-10T04:32:12.763Z,100.00
2023-03-10T04:34:43.358Z,99.64
2023-03-10T04:37:12.877Z,99.89
2023-03-10T04:39:41.693Z,100.00
2023-03-10T04:42:10.891Z,100.00
2023-03-10T04:44:39.760Z,100.00
2023-03-10T04:47:09.915Z,99.88
2023-03-10T04:49:40.763Z,99.49
2023-03-10T04:52:14.633Z,99.51
2023-03-10T04:54:45.235Z,99.53
2023-03-10T04:57:14.461Z,99.74
2023-03-10T04:59:44.366Z,100.00
2023-03-10T05:02:14.029Z,100.00
2023-03-10T05:04:44.515Z,100.00
2023-03-10T05:07:13.331Z,100.00
2023-03-10T05:09:48.365Z,99.92
2023-03-10T05:12:17.787Z,100.00
2023-03-10T05:14:46.704Z,100.00
2023-03-10T05:17:18.778Z,100.00
2023-03-10T05:20:00.569Z,100.00
2023-03-10T05:22:39.822Z,100.00
2023-03-10T05:25:13.460Z,100.00
2023-03-10T05:27:45.741Z,100.00
2023-03-10T05:30:16.852Z,100.00
2023-03-10T05:32:49.526Z,100.00
2023-03-10T05:35:20.576Z,100.00
2023-03-10T05:37:49.997Z,100.00
2023-03-10T05:40:20.857Z,100.00
2023-03-10T05:42:51.529Z,100.00
2023-03-10T05:45:22.991Z,100.00
2023-03-10T05:47:53.532Z,100.00
2023-03-10T05:50:24.798Z,100.00
2023-03-10T05:52:59.019Z,100.00
2023-03-10T05:55:29.802Z,100.00
2023-03-10T05:57:58.694Z,100.00
2023-03-10T06:00:28.216Z,100.00
2023-03-10T06:03:03.061Z,100.00
2023-03-10T06:05:33.192Z,100.00
2023-03-10T06:08:01.856Z,100.00
2023-03-10T06:10:30.654Z,100.00
2023-03-10T06:12:59.399Z,100.00
2023-03-10T06:15:28.249Z,100.00
2023-03-10T06:17:56.947Z,100.00
2023-03-10T06:20:25.736Z,100.00
2023-03-10T06:22:55.734Z,100.00
2023-03-10T06:25:24.570Z,100.00
2023-03-10T06:27:53.279Z,100.00
2023-03-10T06:30:22.516Z,100.00
2023-03-10T06:32:51.278Z,100.00
2023-03-10T06:35:20.424Z,100.00
2023-03-10T06:37:49.202Z,100.00
2023-03-10T06:40:19.966Z,100.00
2023-03-10T06:42:48.721Z,100.00
2023-03-10T06:45:18.565Z,100.00
2023-03-10T06:47:47.228Z,100.00
2023-03-10T06:50:19.136Z,100.00
2023-03-10T06:52:47.837Z,100.00
2023-03-10T06:55:17.068Z,100.00
2023-03-10T06:57:47.185Z,100.00
2023-03-10T07:00:18.319Z,100.00
2023-03-10T07:02:47.074Z,100.00
2023-03-10T07:05:15.987Z,100.00
2023-03-10T07:07:44.694Z,100.00
2023-03-10T07:10:15.842Z,100.00
2023-03-10T07:12:44.615Z,100.00
2023-03-10T07:15:14.747Z,100.00
2023-03-10T07:17:43.390Z,100.00
2023-03-10T07:20:14.113Z,100.00
2023-03-10T07:22:43.232Z,100.00
2023-03-10T07:25:12.685Z,100.00
2023-03-10T07:27:41.456Z,100.00
2023-03-10T07:30:11.963Z,100.00
2023-03-10T07:32:42.202Z,100.00
2023-03-10T07:35:11.594Z,100.00
2023-03-10T07:37:41.276Z,100.00
2023-03-10T07:40:12.454Z,100.00
2023-03-10T07:42:41.091Z,100.00
2023-03-10T07:45:12.374Z,100.00
2023-03-10T07:47:42.489Z,100.00
2023-03-10T07:50:12.954Z,100.00
2023-03-10T07:52:41.653Z,100.00
2023-03-10T07:55:11.428Z,100.00
2023-03-10T07:57:40.184Z,100.00
2023-03-10T08:00:11.075Z,100.00
2023-03-10T08:02:44.570Z,100.00
2023-03-10T08:05:14.943Z,100.00
2023-03-10T08:07:43.909Z,98.81
2023-03-10T08:10:14.451Z,99.56
2023-03-10T08:12:43.223Z,99.33
2023-03-10T08:15:14.669Z,100.00
2023-03-10T08:17:44.825Z,100.00
2023-03-10T08:20:14.514Z,100.00
2023-03-10T08:22:43.206Z,100.00
2023-03-10T08:25:13.024Z,100.00
2023-03-10T08:27:42.253Z,99.74
2023-03-10T08:30:12.845Z,100.00
2023-03-10T08:32:41.727Z,100.00
2023-03-10T08:35:12.767Z,100.00
2023-03-10T08:37:43.252Z,100.00
2023-03-10T08:40:14.500Z,98.75
2023-03-10T08:42:43.267Z,98.98
2023-03-10T08:45:14.086Z,98.70
2023-03-10T08:47:43.001Z,95.31
2023-03-10T08:50:14.662Z,96.95
2023-03-10T08:52:43.603Z,96.39
2023-03-10T08:55:13.407Z,92.71
2023-03-10T08:57:42.246Z,93.06
2023-03-10T09:00:16.136Z,91.64
2023-03-10T09:02:45.878Z,91.43
2023-03-10T09:05:16.077Z,89.21
2023-03-10T09:07:44.880Z,87.43
2023-03-10T09:10:13.582Z,85.31
2023-03-10T09:12:42.286Z,86.33
2023-03-10T09:15:11.875Z,85.62
2023-03-10T09:17:41.027Z,86.47
2023-03-10T09:20:11.359Z,86.53
2023-03-10T09:22:41.498Z,87.15
2023-03-10T09:25:11.664Z,86.33
2023-03-10T09:27:40.403Z,87.73
2023-03-10T09:30:10.505Z,86.22
2023-03-10T09:32:39.248Z,87.44
2023-03-10T09:35:09.321Z,88.56
2023-03-10T09:37:38.008Z,88.87
2023-03-10T09:40:14.529Z,90.26
2023-03-10T09:42:46.400Z,91.07
2023-03-10T09:45:31.907Z,89.75
2023-03-10T09:48:29.452Z,83.43
2023-03-10T09:51:01.255Z,84.11
2023-03-10T09:53:52.592Z,76.93
2023-03-10T09:56:29.995Z,71.90
2023-03-10T09:59:05.520Z,68.89
2023-03-10T10:01:35.952Z,72.82
2023-03-10T10:04:13.071Z,71.37
2023-03-10T10:06:46.759Z,70.55
2023-03-10T10:09:27.331Z,67.28
2023-03-10T10:11:57.872Z,64.50
2023-03-10T10:14:31.446Z,66.15
2023-03-10T10:17:10.213Z,65.39
2023-03-10T10:19:41.154Z,64.84
2023-03-10T10:22:20.647Z,65.32
2023-03-10T10:25:12.255Z,64.61
2023-03-10T10:27:45.454Z,63.20
2023-03-10T10:30:33.661Z,65.77
2023-03-10T10:33:04.564Z,63.11
2023-03-10T10:35:37.018Z,61.92
2023-03-10T10:38:08.594Z,60.85
2023-03-10T10:40:49.093Z,61.10
2023-03-10T10:43:22.371Z,62.07
2023-03-10T10:45:56.219Z,63.74
2023-03-10T10:48:40.608Z,62.76
2023-03-10T10:51:24.579Z,61.84
2023-03-10T10:53:54.893Z,63.32
2023-03-10T10:56:25.086Z,62.38
2023-03-10T10:59:21.869Z,62.92
2023-03-10T11:01:55.407Z,64.92
2023-03-10T11:04:26.793Z,63.78
2023-03-10T11:07:12.668Z,63.61
2023-03-10T11:09:41.359Z,65.42
2023-03-10T11:12:20.641Z,64.57
2023-03-10T11:15:21.169Z,65.64
2023-03-10T11:17:57.617Z,64.70
2023-03-10T11:20:38.066Z,65.62
2023-03-10T11:23:22.196Z,61.21
2023-03-10T11:26:00.174Z,64.91
2023-03-10T11:28:49.058Z,63.96
2023-03-10T11:31:38.049Z,61.34
2023-03-10T11:34:21.127Z,63.91
2023-03-10T11:37:04.902Z,63.86
2023-03-10T11:39:56.172Z,64.68
2023-03-10T11:42:35.941Z,64.54
2023-03-10T11:45:21.658Z,64.91
2023-03-10T11:48:07.329Z,63.12
2023-03-10T11:50:46.100Z,59.32
2023-03-10T11:53:23.168Z,62.47
2023-03-10T11:55:54.044Z,61.89
2023-03-10T11:58:29.714Z,62.25
2023-03-10T12:00:59.736Z,62.85
2023-03-10T12:03:43.616Z,59.15
2023-03-10T12:06:21.105Z,59.47
2023-03-10T12:08:56.801Z,60.54
2023-03-10T12:11:28.550Z,59.73
2023-03-10T12:14:01.550Z,61.35
2023-03-10T12:16:35.848Z,60.36
2023-03-10T12:19:07.761Z,60.39
2023-03-10T12:21:36.675Z,58.95
2023-03-10T12:24:06.669Z,59.53
2023-03-10T12:27:05.981Z,60.67
2023-03-10T12:29:42.581Z,61.17
2023-03-10T12:32:48.392Z,60.21
2023-03-10T12:35:52.616Z,57.80
2023-03-10T12:38:40.411Z,58.08
2023-03-10T12:41:09.570Z,57.43
2023-03-10T12:44:28.801Z,55.45
2023-03-10T12:47:12.290Z,52.84
2023-03-10T12:49:55.206Z,54.88
2023-03-10T12:52:39.826Z,54.67
2023-03-10T12:55:22.463Z,55.92
2023-03-10T12:58:04.016Z,57.09
2023-03-10T13:00:47.838Z,56.02
2023-03-10T13:03:42.894Z,55.88
2023-03-10T13:06:25.595Z,54.53
2023-03-10T13:09:01.838Z,53.71
2023-03-10T13:11:40.416Z,54.90
2023-03-10T13:14:15.705Z,56.42
2023-03-10T13:16:55.026Z,57.26
2023-03-10T13:19:26.555Z,57.71
2023-03-10T13:21:55.586Z,56.41
2023-03-10T13:24:29.681Z,56.50
2023-03-10T13:27:13.806Z,57.48
2023-03-10T13:29:55.954Z,57.64
2023-03-10T13:32:25.718Z,56.82
2023-03-10T13:34:55.510Z,57.22
2023-03-10T13:37:25.232Z,55.48
2023-03-10T13:40:10.321Z,54.99
2023-03-10T13:42:44.125Z,55.51
2023-03-10T13:45:25.263Z,57.11
2023-03-10T13:47:55.897Z,57.26
2023-03-10T13:50:26.214Z,57.41
2023-03-10T13:52:57.906Z,57.49
2023-03-10T13:55:29.944Z,56.88
2023-03-10T13:58:00.004Z,57.17
2023-03-10T14:00:30.137Z,56.84
2023-03-10T14:02:59.051Z,58.05
2023-03-10T14:05:48.824Z,57.81
2023-03-10T14:08:27.940Z,57.20
2023-03-10T14:11:35.739Z,56.62
2023-03-10T14:14:12.688Z,55.71
2023-03-10T14:17:00.394Z,57.23
2023-03-10T14:19:56.760Z,60.23
2023-03-10T14:22:38.147Z,61.77
2023-03-10T14:25:15.200Z,60.89
2023-03-10T14:27:50.205Z,62.21
2023-03-10T14:30:26.318Z,62.72
2023-03-10T14:32:57.473Z,65.79
2023-03-10T14:35:29.695Z,67.76
2023-03-10T14:37:58.911Z,68.24
2023-03-10T14:40:27.868Z,69.51
2023-03-10T14:43:03.983Z,69.79
2023-03-10T14:45:36.464Z,69.39
2023-03-10T14:48:15.372Z,73.53
2023-03-10T14:50:44.497Z,76.32
2023-03-10T14:53:16.002Z,79.17
2023-03-10T14:55:49.099Z,81.18
2023-03-10T14:58:23.208Z,81.26
2023-03-10T15:00:52.733Z,82.70
2023-03-10T15:03:24.175Z,82.80
2023-03-10T15:05:52.875Z,82.00
2023-03-10T15:08:21.781Z,82.05
2023-03-10T15:10:53.137Z,81.94
2023-03-10T15:13:25.543Z,80.46
2023-03-10T15:15:54.854Z,80.25
2023-03-10T15:18:27.136Z,80.37
2023-03-10T15:20:59.379Z,81.88
2023-03-10T15:23:29.379Z,80.85
2023-03-10T15:25:59.605Z,81.36
2023-03-10T15:28:29.707Z,81.73
2023-03-10T15:30:58.826Z,81.66
2023-03-10T15:33:28.181Z,81.66
2023-03-10T15:35:58.202Z,80.70
2023-03-10T15:38:28.435Z,80.98
2023-03-10T15:40:57.324Z,81.22
2023-03-10T15:43:26.428Z,80.68
2023-03-10T15:45:56.762Z,80.86
2023-03-10T15:48:25.422Z,81.31
2023-03-10T15:50:55.330Z,81.09
2023-03-10T15:53:27.820Z,82.06
2023-03-10T15:55:56.773Z,81.38
2023-03-10T15:58:25.707Z,81.07
2023-03-10T16:00:56.079Z,81.29
2023-03-10T16:03:25.201Z,80.92
2023-03-10T16:05:54.548Z,80.76
2023-03-10T16:08:23.370Z,80.75
2023-03-10T16:10:56.534Z,80.04
2023-03-10T16:13:26.125Z,80.58
2023-03-10T16:15:56.439Z,80.68
2023-03-10T16:18:25.328Z,80.24
2023-03-10T16:20:58.621Z,81.01
2023-03-10T16:23:28.035Z,80.76
2023-03-10T16:26:16.029Z,80.98
2023-03-10T16:28:48.095Z,78.69
2023-03-10T16:31:21.668Z,79.61
2023-03-10T16:33:52.333Z,79.28
2023-03-10T16:36:24.163Z,79.61
2023-03-10T16:38:53.827Z,79.57
2023-03-10T16:41:23.769Z,80.17
2023-03-10T16:43:54.657Z,79.60
2023-03-10T16:46:29.913Z,79.48
2023-03-10T16:49:02.718Z,79.18
2023-03-10T16:51:35.379Z,78.72
2023-03-10T16:54:06.996Z,78.12
2023-03-10T16:56:39.403Z,77.85
2023-03-10T16:59:09.208Z,77.87
2023-03-10T17:01:39.578Z,77.56
2023-03-10T17:04:08.853Z,77.83
2023-03-10T17:06:37.908Z,78.18
2023-03-10T17:09:09.039Z,78.25
2023-03-10T17:11:40.778Z,78.17
2023-03-10T17:14:14.270Z,77.83
2023-03-10T17:16:45.820Z,77.82
2023-03-10T17:19:18.309Z,77.17
2023-03-10T17:21:51.530Z,77.34
2023-03-10T17:24:21.587Z,76.79
2023-03-10T17:26:50.311Z,77.12
2023-03-10T17:29:19.496Z,77.00
2023-03-10T17:31:56.050Z,76.86
2023-03-10T17:34:24.827Z,77.06
2023-03-10T17:36:53.902Z,76.96
2023-03-10T17:39:25.030Z,76.87
2023-03-10T17:41:54.491Z,76.57
2023-03-10T17:44:23.418Z,75.95
2023-03-10T17:46:56.057Z,76.43
2023-03-10T17:49:24.948Z,75.90
2023-03-10T17:51:53.750Z,77.35
2023-03-10T17:54:23.897Z,77.10
2023-03-10T17:56:52.763Z,77.49
2023-03-10T17:59:23.197Z,77.40
2023-03-10T18:01:53.466Z,77.18
2023-03-10T18:04:30.393Z,77.72
2023-03-10T18:06:59.179Z,77.46
2023-03-10T18:09:28.150Z,77.26
2023-03-10T18:11:58.351Z,77.06
2023-03-10T18:14:27.419Z,77.52
2023-03-10T18:16:57.907Z,77.89
2023-03-10T18:19:27.051Z,78.13
2023-03-10T18:21:55.996Z,77.96
2023-03-10T18:24:26.642Z,77.69
2023-03-10T18:26:56.789Z,77.38
2023-03-10T18:29:25.963Z,77.62
2023-03-10T18:31:56.451Z,78.83
2023-03-10T18:34:25.226Z,79.10
2023-03-10T18:36:55.020Z,78.58
2023-03-10T18:39:24.470Z,78.38
2023-03-10T18:41:55.926Z,78.87
2023-03-10T18:44:25.108Z,78.98
2023-03-10T18:46:54.159Z,78.87
2023-03-10T18:49:25.894Z,78.97
2023-03-10T18:51:54.836Z,78.84
2023-03-10T18:54:23.560Z,79.36
2023-03-10T18:56:52.294Z,79.54
2023-03-10T18:59:21.173Z,79.93
2023-03-10T19:01:50.045Z,79.98
2023-03-10T19:04:20.454Z,80.33
2023-03-10T19:06:51.275Z,80.44
2023-03-10T19:09:25.283Z,80.36
2023-03-10T19:11:55.324Z,80.55
2023-03-10T19:14:29.696Z,81.15
2023-03-10T19:16:58.777Z,81.15
2023-03-10T19:19:30.883Z,81.24
2023-03-10T19:22:01.514Z,81.69
2023-03-10T19:24:30.963Z,82.39
2023-03-10T19:27:00.544Z,82.50
2023-03-10T19:29:29.725Z,83.87
2023-03-10T19:31:59.614Z,84.20
2023-03-10T19:34:28.971Z,84.09
2023-03-10T19:36:58.259Z,84.62
2023-03-10T19:39:28.508Z,84.61
2023-03-10T19:41:57.231Z,86.36
2023-03-10T19:44:29.992Z,86.18
2023-03-10T19:46:58.834Z,86.33
2023-03-10T19:49:28.150Z,86.59
2023-03-10T19:51:57.367Z,86.26
2023-03-10T19:54:30.324Z,86.58
2023-03-10T19:57:00.507Z,86.76
2023-03-10T19:59:30.244Z,87.17
2023-03-10T20:02:02.493Z,87.20
2023-03-10T20:04:34.638Z,88.20
2023-03-10T20:07:03.406Z,88.13
2023-03-10T20:09:35.128Z,88.77
2023-03-10T20:12:07.262Z,89.17
2023-03-10T20:14:35.977Z,89.30
2023-03-10T20:17:04.765Z,89.27
2023-03-10T20:19:33.450Z,89.30
2023-03-10T20:22:02.271Z,90.15
2023-03-10T20:24:31.361Z,89.52
2023-03-10T20:27:03.533Z,89.43
2023-03-10T20:29:32.995Z,88.85
2023-03-10T20:32:01.804Z,88.95
2023-03-10T20:34:30.779Z,87.72
2023-03-10T20:36:59.883Z,87.76
2023-03-10T20:39:28.563Z,87.23
2023-03-10T20:41:57.348Z,87.53
2023-03-10T20:44:27.602Z,86.70
2023-03-10T20:46:56.458Z,85.74
2023-03-10T20:49:28.292Z,84.67
2023-03-10T20:51:57.153Z,85.15
2023-03-10T20:54:25.844Z,86.25
2023-03-10T20:56:54.588Z,86.15
2023-03-10T20:59:29.825Z,86.28
2023-03-10T21:01:58.771Z,84.97
2023-03-10T21:04:28.196Z,85.08
2023-03-10T21:06:57.039Z,85.40
2023-03-10T21:09:25.854Z,85.17
2023-03-10T21:11:54.639Z,85.08
2023-03-10T21:14:23.352Z,84.48
2023-03-10T21:16:55.351Z,84.53
2023-03-10T21:19:24.172Z,83.67
2023-03-10T21:21:53.557Z,83.90
2023-03-10T21:24:22.617Z,82.83
2023-03-10T21:26:51.374Z,83.16
2023-03-10T21:29:20.108Z,82.57
2023-03-10T21:31:48.846Z,82.71
2023-03-10T21:34:18.974Z,83.52
2023-03-10T21:36:47.983Z,84.00
2023-03-10T21:39:17.118Z,82.20
2023-03-10T21:41:46.223Z,82.71
2023-03-10T21:44:15.105Z,82.77
2023-03-10T21:46:43.877Z,83.64
2023-03-10T21:49:12.643Z,83.00
2023-03-10T21:51:43.134Z,82.81
2023-03-10T21:54:12.466Z,83.02
2023-03-10T21:56:41.596Z,83.77
2023-03-10T21:59:10.584Z,83.72
2023-03-10T22:01:39.382Z,83.45
2023-03-10T22:04:08.671Z,83.25
2023-03-10T22:06:37.529Z,83.18
2023-03-10T22:09:07.695Z,82.87
2023-03-10T22:11:36.594Z,82.51
2023-03-10T22:14:05.537Z,83.59
2023-03-10T22:16:34.195Z,84.31
2023-03-10T22:19:03.443Z,83.35
2023-03-10T22:21:33.096Z,82.88
2023-03-10T22:24:03.187Z,82.90
2023-03-10T22:26:33.306Z,83.93
2023-03-10T22:29:02.021Z,84.50
2023-03-10T22:31:30.807Z,86.55
2023-03-10T22:33:59.623Z,85.96
2023-03-10T22:36:28.321Z,86.66
2023-03-10T22:38:57.043Z,87.01
2023-03-10T22:41:26.034Z,86.21
2023-03-10T22:43:56.717Z,85.60
2023-03-10T22:46:25.549Z,85.02
2023-03-10T22:48:54.688Z,84.91
2023-03-10T22:51:23.367Z,85.56
2023-03-10T22:53:52.108Z,84.38
2023-03-10T22:56:21.040Z,84.21
2023-03-10T22:58:49.753Z,84.33
2023-03-10T23:01:19.901Z,84.24
2023-03-10T23:03:48.819Z,85.00
2023-03-10T23:06:18.900Z,85.35
2023-03-10T23:08:48.601Z,86.52
2023-03-10T23:11:18.089Z,87.27
2023-03-10T23:13:46.894Z,88.26
2023-03-10T23:16:18.119Z,89.83
2023-03-10T23:18:48.481Z,90.13
2023-03-10T23:21:17.336Z,88.85
2023-03-10T23:23:48.042Z,89.84
2023-03-10T23:26:16.954Z,91.63
2023-03-10T23:28:46.092Z,91.27
2023-03-10T23:31:15.798Z,90.48
2023-03-10T23:33:45.022Z,89.14
2023-03-10T23:36:15.789Z,85.62
2023-03-10T23:38:44.606Z,85.22
2023-03-10T23:41:13.869Z,86.55
2023-03-10T23:43:42.536Z,84.31
2023-03-10T23:46:11.414Z,85.32
2023-03-10T23:48:40.437Z,84.04
2023-03-10T23:51:16.170Z,83.62
2023-03-10T23:53:45.886Z,84.88
2023-03-10T23:56:14.539Z,84.02
2023-03-10T23:58:43.295Z,83.76
